Time;durP1;ratioP1;P1;durP2;ratioP2;P2;SDS_P1;SDS_P2;PMS_P1;PMS_P2;Temp;Humidity;BMP_temperature;BMP_pressure;BME280_temperature;BME280_humidity;BME280_pressure;Samples;Min_cycle;Max_cycle;Signal;HPM_P1;HPM_P2
2022/07/06 00:00:31;;;;;;;3.13;1.90;;;17.30;98.00;;;;;;5051586;28;20449;-70
2022/07/06 00:02:58;;;;;;;3.53;2.10;;;17.30;98.00;;;;;;5051428;28;20458;-71
2022/07/06 00:05:26;;;;;;;3.63;1.80;;;17.00;98.00;;;;;;5050846;28;20466;-72
2022/07/06 00:07:53;;;;;;;2.30;1.67;;;17.00;98.00;;;;;;5051111;28;20585;-71
2022/07/06 00:10:21;;;;;;;2.53;1.93;;;17.00;98.00;;;;;;5050799;28;20457;-71
2022/07/06 00:12:48;;;;;;;3.43;2.00;;;17.10;98.00;;;;;;5050960;28;20462;-71
2022/07/06 00:15:16;;;;;;;3.47;1.90;;;17.00;98.00;;;;;;5050953;28;20458;-70
2022/07/06 00:17:44;;;;;;;2.87;2.00;;;17.00;98.00;;;;;;5051005;28;20492;-69
2022/07/06 00:20:12;;;;;;;3.90;2.23;;;17.00;98.00;;;;;;5052416;28;20449;-70
2022/07/06 00:22:40;;;;;;;3.03;2.00;;;17.00;98.00;;;;;;5054700;28;20445;-71
2022/07/06 00:25:08;;;;;;;3.37;2.27;;;17.10;98.00;;;;;;5054405;28;20477;-70
2022/07/06 00:27:35;;;;;;;3.30;2.07;;;17.10;98.00;;;;;;5054546;28;20461;-71
2022/07/06 00:30:02;;;;;;;2.70;2.13;;;17.20;98.00;;;;;;5054508;28;20468;-73
2022/07/06 00:32:31;;;;;;;3.80;2.20;;;17.30;98.00;;;;;;5054486;28;20630;-71
2022/07/06 00:34:58;;;;;;;3.10;1.90;;;17.30;98.00;;;;;;5054464;28;20458;-72
2022/07/06 00:37:25;;;;;;;2.97;1.97;;;17.20;98.00;;;;;;5054133;28;20496;-71
2022/07/06 00:39:52;;;;;;;2.70;1.97;;;17.00;98.00;;;;;;5054297;28;20465;-70
2022/07/06 00:42:19;;;;;;;3.20;2.07;;;16.90;98.00;;;;;;5054302;28;20453;-71
2022/07/06 00:44:47;;;;;;;4.13;2.57;;;16.90;98.00;;;;;;5053413;28;20456;-71
2022/07/06 00:47:14;;;;;;;2.93;2.00;;;16.90;98.00;;;;;;5054259;28;20464;-71
2022/07/06 00:52:27;;;;;;;2.73;2.03;;;16.90;98.00;;;;;;5054268;28;20468;-70
2022/07/06 00:54:54;;;;;;;2.60;1.90;;;17.00;98.00;;;;;;5054133;28;20453;-70
2022/07/06 00:57:21;;;;;;;3.60;1.77;;;16.90;98.00;;;;;;5053867;28;20492;-70
2022/07/06 00:59:49;;;;;;;2.57;1.90;;;17.00;98.00;;;;;;5053932;28;20466;-70
2022/07/06 01:02:16;;;;;;;2.20;1.80;;;17.00;98.00;;;;;;5052670;28;20460;-69
2022/07/06 01:04:46;;;;;;;2.40;1.80;;;17.00;98.00;;;;;;5053879;28;20456;-70
2022/07/06 01:07:13;;;;;;;3.93;2.10;;;16.80;98.00;;;;;;5053760;28;20462;-69
2022/07/06 01:09:40;;;;;;;2.83;2.10;;;16.80;98.00;;;;;;5053868;28;20454;-69
2022/07/06 01:12:08;;;;;;;2.07;1.77;;;16.70;98.00;;;;;;5052680;28;20465;-70
2022/07/06 01:14:36;;;;;;;4.23;1.90;;;16.60;98.00;;;;;;5053671;28;20739;-70
2022/07/06 01:17:04;;;;;;;3.47;1.93;;;16.70;98.00;;;;;;5053471;28;20481;-69
2022/07/06 01:19:31;;;;;;;3.40;2.33;;;16.60;98.00;;;;;;5053593;28;20457;-70
2022/07/06 01:22:00;;;;;;;2.00;1.80;;;16.60;98.00;;;;;;5053482;28;20457;-69
2022/07/06 01:24:28;;;;;;;2.83;1.80;;;16.50;98.00;;;;;;5053732;28;20470;-70
2022/07/06 01:26:55;;;;;;;2.87;2.27;;;16.70;98.00;;;;;;5052060;28;20450;-70
2022/07/06 01:29:22;;;;;;;2.80;2.00;;;16.70;98.00;;;;;;5053192;28;20472;-70
2022/07/06 01:31:51;;;;;;;3.17;1.97;;;16.80;98.00;;;;;;5052158;28;20469;-69
2022/07/06 01:34:20;;;;;;;2.40;1.80;;;16.70;98.00;;;;;;5053263;28;20789;-69
2022/07/06 01:36:47;;;;;;;3.83;1.87;;;16.70;98.00;;;;;;5051848;28;20461;-70
2022/07/06 01:39:16;;;;;;;2.43;1.90;;;16.50;98.00;;;;;;5053203;28;20461;-71
2022/07/06 01:41:43;;;;;;;3.53;2.10;;;16.50;98.00;;;;;;5053178;28;20953;-71
2022/07/06 01:44:10;;;;;;;3.23;2.23;;;16.50;98.00;;;;;;5052142;28;20469;-70
2022/07/06 01:46:39;;;;;;;2.80;2.00;;;16.50;98.00;;;;;;5053250;28;20457;-70
2022/07/06 01:49:06;;;;;;;2.93;1.80;;;16.30;98.00;;;;;;5052125;28;20465;-72
2022/07/06 01:51:34;;;;;;;2.93;2.07;;;16.30;98.00;;;;;;5053301;28;20457;-71
2022/07/06 01:54:01;;;;;;;2.77;1.87;;;16.30;98.00;;;;;;5053362;28;20465;-71
2022/07/06 01:56:29;;;;;;;2.23;2.00;;;16.20;98.00;;;;;;5052885;28;20461;-70
2022/07/06 01:58:57;;;;;;;3.67;2.57;;;16.00;98.00;;;;;;5052864;28;20486;-70
2022/07/06 02:01:24;;;;;;;2.43;1.70;;;15.90;98.00;;;;;;5052653;28;20536;-71
2022/07/06 02:03:51;;;;;;;2.90;1.90;;;15.90;98.00;;;;;;5052949;28;20457;-70
2022/07/06 02:06:18;;;;;;;3.83;2.07;;;15.80;98.00;;;;;;5052621;28;20982;-72
2022/07/06 02:08:45;;;;;;;2.83;1.97;;;15.80;98.00;;;;;;5052698;28;20458;-71
2022/07/06 02:11:13;;;;;;;2.60;1.90;;;15.90;98.00;;;;;;5051351;28;20806;-70
2022/07/06 02:13:42;;;;;;;2.20;1.83;;;15.90;98.00;;;;;;5052859;28;20516;-70
2022/07/06 02:16:10;;;;;;;3.50;2.40;;;15.90;98.00;;;;;;5052509;28;21071;-71
2022/07/06 02:18:37;;;;;;;2.63;1.80;;;15.80;98.00;;;;;;5052246;28;20485;-72
2022/07/06 02:21:05;;;;;;;2.70;2.00;;;15.90;98.00;;;;;;5052254;28;20465;-70
2022/07/06 02:23:32;;;;;;;3.07;2.10;;;15.90;98.00;;;;;;5052440;28;20470;-71
2022/07/06 02:26:01;;;;;;;3.53;2.00;;;15.80;98.00;;;;;;5052183;28;20461;-70
2022/07/06 02:28:28;;;;;;;2.33;1.67;;;15.90;98.00;;;;;;5051042;28;20462;-71
2022/07/06 02:30:58;;;;;;;3.57;2.03;;;15.80;98.00;;;;;;5052143;28;20469;-70
2022/07/06 02:33:26;;;;;;;2.20;1.83;;;15.80;98.00;;;;;;5052273;28;20461;-71
2022/07/06 02:35:53;;;;;;;2.07;1.90;;;15.70;98.00;;;;;;5052061;28;20458;-70
2022/07/06 02:38:21;;;;;;;2.53;1.73;;;15.60;98.00;;;;;;5052179;28;20485;-70
2022/07/06 02:40:48;;;;;;;2.50;1.80;;;15.50;98.00;;;;;;5052024;28;20470;-70
2022/07/06 02:43:16;;;;;;;2.67;1.97;;;15.50;98.00;;;;;;5051793;28;20469;-69
2022/07/06 02:45:43;;;;;;;4.70;2.03;;;15.50;98.00;;;;;;5050836;28;20469;-69
2022/07/06 02:48:11;;;;;;;2.87;1.97;;;15.40;98.00;;;;;;5051927;28;20465;-70
2022/07/06 02:50:38;;;;;;;2.47;1.63;;;15.50;98.00;;;;;;5050764;28;20489;-71
2022/07/06 02:53:06;;;;;;;3.50;1.90;;;15.50;98.00;;;;;;5051696;28;20461;-70
2022/07/06 02:55:34;;;;;;;2.93;1.87;;;15.40;98.00;;;;;;5051755;28;20461;-71
2022/07/06 02:58:01;;;;;;;3.30;2.10;;;15.40;98.00;;;;;;5051688;28;20509;-71
2022/07/06 03:00:28;;;;;;;1.83;1.77;;;15.30;98.00;;;;;;5050598;28;20508;-69
2022/07/06 03:02:55;;;;;;;3.93;1.77;;;15.30;98.00;;;;;;5051748;28;20457;-71
2022/07/06 03:05:24;;;;;;;2.77;1.90;;;15.20;98.00;;;;;;5051382;28;20462;-71
2022/07/06 03:07:51;;;;;;;3.00;1.83;;;15.20;98.00;;;;;;5051803;28;20937;-70
2022/07/06 03:10:19;;;;;;;4.03;2.23;;;15.20;98.00;;;;;;5051473;28;20454;-70
2022/07/06 03:12:46;;;;;;;2.43;1.80;;;15.20;98.00;;;;;;5051386;28;20886;-69
2022/07/06 03:15:14;;;;;;;2.23;1.90;;;15.30;98.00;;;;;;5051385;28;20489;-70
2022/07/06 03:17:41;;;;;;;2.23;1.80;;;15.30;98.00;;;;;;5051119;28;21003;-72
2022/07/06 03:20:08;;;;;;;2.43;1.57;;;15.40;98.00;;;;;;5051226;28;20454;-71
2022/07/06 03:22:37;;;;;;;3.07;2.17;;;15.40;98.00;;;;;;5051406;28;20461;-72
2022/07/06 03:25:05;;;;;;;2.73;1.93;;;15.40;98.00;;;;;;5049883;28;20453;-71
2022/07/06 03:27:33;;;;;;;3.10;1.80;;;15.10;98.00;;;;;;5050093;28;20457;-72
2022/07/06 03:30:00;;;;;;;2.93;1.93;;;15.00;98.00;;;;;;5051629;28;20488;-71
2022/07/06 03:32:31;;;;;;;1.73;1.60;;;15.00;98.00;;;;;;5050972;28;20466;-71
2022/07/06 03:34:59;;;;;;;3.23;2.00;;;14.90;98.00;;;;;;5050451;28;20508;-71
2022/07/06 03:37:26;;;;;;;2.10;1.70;;;14.80;98.00;;;;;;5050985;28;20474;-71
2022/07/06 03:40:02;;;;;;;2.57;2.20;;;14.80;98.00;;;;;;5051325;28;20465;-71
2022/07/06 03:42:29;;;;;;;3.43;2.07;;;14.80;98.00;;;;;;5051006;28;20471;-70
2022/07/06 03:44:56;;;;;;;1.77;1.67;;;14.90;98.00;;;;;;5051387;28;20469;-72
2022/07/06 03:47:23;;;;;;;2.30;1.80;;;14.80;98.00;;;;;;5051059;28;20461;-72
2022/07/06 03:49:52;;;;;;;2.60;1.90;;;14.80;98.00;;;;;;5051232;28;20462;-71
2022/07/06 03:52:19;;;;;;;2.00;1.80;;;14.80;98.00;;;;;;5050060;28;20867;-71
2022/07/06 03:54:47;;;;;;;5.33;2.00;;;14.80;98.00;;;;;;5052571;28;20465;-72
2022/07/06 03:57:16;;;;;;;2.00;1.60;;;14.80;98.00;;;;;;5055142;28;20462;-72
2022/07/06 03:59:43;;;;;;;3.17;2.10;;;14.70;98.00;;;;;;5054903;28;20491;-71
2022/07/06 04:02:11;;;;;;;2.50;1.40;;;14.70;98.00;;;;;;5053717;28;20472;-71
2022/07/06 04:04:38;;;;;;;3.00;1.90;;;14.80;98.00;;;;;;5054837;28;20452;-70
2022/07/06 04:07:05;;;;;;;3.30;1.97;;;15.00;98.00;;;;;;5054978;28;20453;-71
2022/07/06 04:09:32;;;;;;;4.93;1.90;;;15.00;98.00;;;;;;5054804;28;20619;-70
2022/07/06 04:12:03;;;;;;;2.90;1.93;;;15.10;98.00;;;;;;5054839;28;20472;-71
2022/07/06 04:14:32;;;;;;;2.23;2.10;;;15.20;98.00;;;;;;5054764;28;20476;-71
2022/07/06 04:17:51;;;;;;;2.03;1.53;;;15.40;98.00;;;;;;5054714;28;20449;-71
2022/07/06 04:19:46;;;;;;;2.70;1.73;;;15.40;98.00;;;;;;5054471;28;20539;-69
2022/07/06 04:22:13;;;;;;;2.90;2.00;;;15.50;98.00;;;;;;5053288;28;20461;-71
2022/07/06 04:24:42;;;;;;;3.40;1.90;;;15.60;98.00;;;;;;5054495;28;20468;-71
2022/07/06 04:27:10;;;;;;;3.33;1.90;;;15.80;98.00;;;;;;5036820;28;21038;-70
2022/07/06 04:29:39;;;;;;;2.43;1.80;;;15.70;98.00;;;;;;5054161;28;20553;-70
2022/07/06 04:32:06;;;;;;;2.73;2.07;;;15.60;98.00;;;;;;5052868;28;20465;-71
2022/07/06 04:34:34;;;;;;;3.37;2.03;;;15.40;98.00;;;;;;5054352;28;20454;-73
2022/07/06 04:37:01;;;;;;;2.30;1.90;;;15.40;98.00;;;;;;5052903;28;20473;-70
2022/07/06 04:39:30;;;;;;;2.80;2.03;;;15.30;98.00;;;;;;5054316;28;20493;-70
2022/07/06 04:41:57;;;;;;;2.77;1.80;;;15.30;98.00;;;;;;5054380;28;20484;-71
2022/07/06 04:44:25;;;;;;;2.77;2.00;;;15.30;98.00;;;;;;5054195;28;20496;-71
2022/07/06 04:46:54;;;;;;;2.00;1.70;;;15.20;98.00;;;;;;5054542;28;20457;-71
2022/07/06 04:49:21;;;;;;;2.10;2.00;;;15.30;98.00;;;;;;5054346;28;20458;-72
2022/07/06 04:51:49;;;;;;;3.23;2.10;;;15.40;98.00;;;;;;5054290;28;20457;-71
2022/07/06 04:54:16;;;;;;;2.17;1.70;;;15.50;98.00;;;;;;5054082;28;20473;-72
2022/07/06 04:56:43;;;;;;;2.00;1.67;;;15.50;98.00;;;;;;5053013;28;20472;-70
2022/07/06 04:59:11;;;;;;;2.53;2.00;;;15.70;98.00;;;;;;5053864;28;20485;-71
2022/07/06 05:01:38;;;;;;;2.30;2.10;;;15.90;98.00;;;;;;5053912;28;20454;-73
2022/07/06 05:04:06;;;;;;;2.50;2.27;;;16.00;98.00;;;;;;5053797;28;20458;-70
2022/07/06 05:06:34;;;;;;;3.80;2.30;;;16.10;98.00;;;;;;5053632;28;20472;-71
2022/07/06 05:09:01;;;;;;;2.30;1.87;;;16.30;98.00;;;;;;5053787;28;20465;-71
2022/07/06 05:11:28;;;;;;;2.43;1.90;;;16.40;98.00;;;;;;5053738;28;20455;-71
2022/07/06 05:13:56;;;;;;;4.40;2.30;;;16.50;98.00;;;;;;5053798;28;20739;-71
2022/07/06 05:16:23;;;;;;;2.43;2.07;;;16.60;98.00;;;;;;5053598;28;20464;-70
2022/07/06 05:18:50;;;;;;;2.90;2.23;;;16.70;98.00;;;;;;5053387;28;20495;-71
2022/07/06 05:21:19;;;;;;;2.70;2.10;;;16.70;98.00;;;;;;5053498;28;20461;-72
2022/07/06 05:23:46;;;;;;;4.60;2.50;;;16.80;98.00;;;;;;5053558;28;20472;-71
2022/07/06 05:26:14;;;;;;;2.90;1.90;;;16.90;98.00;;;;;;5053402;28;20491;-71
2022/07/06 05:28:42;;;;;;;3.70;2.30;;;16.90;98.00;;;;;;5053419;28;20947;-71
2022/07/06 05:31:10;;;;;;;2.83;1.90;;;16.90;98.00;;;;;;5052905;28;20776;-72
2022/07/06 05:33:37;;;;;;;2.90;2.47;;;16.90;98.00;;;;;;5053367;28;20462;-71
2022/07/06 05:36:05;;;;;;;3.00;1.90;;;17.10;98.00;;;;;;5053323;28;20461;-71
2022/07/06 05:38:34;;;;;;;2.80;2.00;;;17.20;98.00;;;;;;5053328;28;20885;-71
2022/07/06 05:41:01;;;;;;;5.93;2.73;;;17.20;98.00;;;;;;5053145;28;20473;-72
2022/07/06 05:43:28;;;;;;;3.03;2.37;;;17.30;98.00;;;;;;5052948;28;20454;-70
2022/07/06 05:45:56;;;;;;;2.97;2.23;;;17.30;98.00;;;;;;5053161;28;20856;-71
2022/07/06 05:51:07;;;;;;;3.40;2.30;;;17.20;98.00;;;;;;5012485;28;20462;-75
2022/07/06 05:53:37;;;;;;;3.70;2.50;;;17.30;98.00;;;;;;5053272;28;20808;-76
2022/07/06 05:56:04;;;;;;;3.17;2.23;;;17.40;98.00;;;;;;5053050;28;20815;-75
2022/07/06 05:58:31;;;;;;;3.60;2.20;;;17.50;98.00;;;;;;5052860;28;20492;-75
2022/07/06 06:00:59;;;;;;;3.60;2.47;;;17.70;98.00;;;;;;5053123;28;20481;-75
2022/07/06 06:03:26;;;;;;;2.40;1.87;;;17.80;98.00;;;;;;5052784;28;20457;-75
2022/07/06 06:05:54;;;;;;;3.70;2.57;;;17.80;98.00;;;;;;5052571;28;20458;-76
2022/07/06 06:08:21;;;;;;;4.13;2.30;;;17.80;98.00;;;;;;5051563;28;20462;-76
2022/07/06 06:10:50;;;;;;;9.70;2.50;;;17.80;98.00;;;;;;5052550;28;20458;-75
2022/07/06 06:13:17;;;;;;;2.90;2.00;;;17.90;98.00;;;;;;5052396;28;20829;-76
2022/07/06 06:15:44;;;;;;;3.10;2.10;;;17.90;98.00;;;;;;5052422;28;20464;-77
2022/07/06 06:18:12;;;;;;;3.13;2.00;;;18.00;98.00;;;;;;5051990;28;20527;-77
2022/07/06 06:20:39;;;;;;;2.63;2.00;;;18.10;98.00;;;;;;5052422;28;20515;-78
2022/07/06 06:23:07;;;;;;;3.43;2.27;;;18.10;98.00;;;;;;5052532;28;20467;-77
2022/07/06 06:25:37;;;;;;;2.30;1.90;;;18.10;98.00;;;;;;5052308;28;20450;-77
2022/07/06 06:28:07;;;;;;;2.80;2.00;;;18.10;98.00;;;;;;5052129;28;20480;-77
2022/07/06 06:30:34;;;;;;;6.07;2.70;;;18.30;98.00;;;;;;5052140;28;20476;-78
2022/07/06 06:33:10;;;;;;;9.23;2.67;;;18.30;98.00;;;;;;5051913;28;20458;-77
2022/07/06 06:35:38;;;;;;;5.47;2.50;;;18.40;98.00;;;;;;5052242;28;20796;-76
2022/07/06 06:38:05;;;;;;;3.40;2.33;;;18.40;98.00;;;;;;5051997;28;20462;-78
2022/07/06 06:40:33;;;;;;;3.50;2.40;;;18.50;98.00;;;;;;5052120;28;20489;-77
2022/07/06 06:43:01;;;;;;;3.90;2.20;;;18.50;98.00;;;;;;5051720;28;20952;-77
2022/07/06 06:45:30;;;;;;;3.10;2.40;;;18.60;98.00;;;;;;5050735;28;20458;-76
2022/07/06 06:47:59;;;;;;;3.93;2.50;;;18.70;98.00;;;;;;5051806;28;20544;-77
2022/07/06 06:50:26;;;;;;;3.47;2.63;;;18.60;98.00;;;;;;5051638;28;20497;-77
2022/07/06 06:52:54;;;;;;;2.70;2.00;;;18.60;98.00;;;;;;5052124;28;20991;-76
2022/07/06 06:55:21;;;;;;;3.10;2.07;;;18.50;98.00;;;;;;5051993;28;20453;-77
2022/07/06 06:57:48;;;;;;;4.63;2.73;;;18.70;98.00;;;;;;5051895;28;20480;-77
2022/07/06 07:00:16;;;;;;;2.63;2.00;;;18.80;98.00;;;;;;5051546;28;20496;-77
2022/07/06 07:02:46;;;;;;;3.60;2.40;;;18.80;98.00;;;;;;5047643;28;20469;-76
2022/07/06 07:05:14;;;;;;;3.07;2.17;;;18.80;98.00;;;;;;5048698;28;20541;-77
2022/07/06 07:07:41;;;;;;;3.83;2.30;;;19.00;98.00;;;;;;5048851;28;21039;-77
2022/07/06 07:10:09;;;;;;;3.70;2.23;;;19.20;98.00;;;;;;5048916;28;20485;-77
2022/07/06 07:12:42;;;;;;;3.07;2.37;;;19.10;98.00;;;;;;5047332;28;20449;-76
2022/07/06 07:15:10;;;;;;;3.40;2.37;;;19.20;98.00;;;;;;5048547;28;20466;-77
2022/07/06 07:17:37;;;;;;;3.80;2.70;;;19.20;98.00;;;;;;5048497;28;20457;-77
2022/07/06 07:20:07;;;;;;;2.23;2.03;;;19.30;98.00;;;;;;5048770;28;20501;-77
2022/07/06 07:22:35;;;;;;;2.50;2.13;;;19.40;98.00;;;;;;5048659;28;20975;-76
2022/07/06 07:25:02;;;;;;;3.03;2.30;;;19.50;98.00;;;;;;5048631;28;20470;-77
2022/07/06 07:27:29;;;;;;;2.77;2.13;;;19.60;98.00;;;;;;5048441;28;20867;-76
2022/07/06 07:29:56;;;;;;;2.97;2.33;;;19.80;98.00;;;;;;5047673;28;20468;-77
2022/07/06 07:32:24;;;;;;;3.90;2.57;;;19.90;98.00;;;;;;5048752;28;20462;-76
2022/07/06 07:34:52;;;;;;;3.07;2.30;;;20.10;98.00;;;;;;5049210;28;20473;-77
2022/07/06 07:37:25;;;;;;;3.30;2.30;;;20.10;98.00;;;;;;5048822;28;20532;-76
2022/07/06 07:39:52;;;;;;;3.07;2.53;;;20.10;98.00;;;;;;5048875;28;20511;-77
2022/07/06 07:42:19;;;;;;;4.30;2.50;;;20.10;98.00;;;;;;5048965;28;20508;-77
2022/07/06 07:44:47;;;;;;;3.83;2.20;;;20.00;98.00;;;;;;5048921;28;20466;-76
2022/07/06 07:47:14;;;;;;;4.73;2.73;;;20.00;98.00;;;;;;5049001;28;20469;-76
2022/07/06 07:49:42;;;;;;;3.63;2.30;;;20.00;98.00;;;;;;5047089;28;20596;-76
2022/07/06 07:52:09;;;;;;;4.60;2.60;;;19.90;98.00;;;;;;5048207;28;20497;-77
2022/07/06 07:54:38;;;;;;;3.87;2.30;;;19.90;98.00;;;;;;5048594;28;20544;-77
2022/07/06 07:57:05;;;;;;;7.00;3.17;;;20.00;98.00;;;;;;5048562;28;20465;-77
2022/07/06 07:59:33;;;;;;;4.67;2.70;;;20.10;98.00;;;;;;5048813;28;20485;-77
2022/07/06 08:02:00;;;;;;;3.67;2.60;;;20.30;98.00;;;;;;5048551;28;20465;-76
2022/07/06 08:04:27;;;;;;;4.67;2.53;;;20.30;98.00;;;;;;5048743;28;20472;-77
2022/07/06 08:06:55;;;;;;;2.90;2.10;;;20.50;98.00;;;;;;5048706;28;20475;-76
2022/07/06 08:09:22;;;;;;;4.30;2.70;;;20.70;98.00;;;;;;5048869;28;20520;-76
2022/07/06 08:11:51;;;;;;;2.70;2.10;;;20.80;97.50;;;;;;5050978;28;20450;-76
2022/07/06 08:14:19;;;;;;;4.03;2.53;;;20.70;97.80;;;;;;5051584;28;20538;-76
2022/07/06 08:16:47;;;;;;;4.10;2.60;;;20.70;98.00;;;;;;5050522;28;20557;-77
2022/07/06 08:19:15;;;;;;;4.90;2.77;;;20.80;98.00;;;;;;5050480;28;20481;-77
2022/07/06 08:21:42;;;;;;;3.57;2.57;;;20.80;98.00;;;;;;5051637;28;20470;-76
2022/07/06 08:24:09;;;;;;;2.90;2.17;;;20.80;98.00;;;;;;5051430;28;20446;-77
2022/07/06 08:26:37;;;;;;;3.70;2.47;;;20.90;98.00;;;;;;5051652;28;20544;-77
2022/07/06 08:29:07;;;;;;;4.10;2.30;;;21.10;98.00;;;;;;5051246;28;20454;-77
2022/07/06 08:31:34;;;;;;;3.30;2.77;;;21.20;97.10;;;;;;5051177;28;20560;-77
2022/07/06 08:34:02;;;;;;;2.57;2.03;;;21.20;95.90;;;;;;5051480;28;20541;-78
2022/07/06 08:36:29;;;;;;;4.10;2.63;;;21.30;96.30;;;;;;5051406;28;20457;-77
2022/07/06 08:38:57;;;;;;;3.60;2.40;;;21.50;97.80;;;;;;5051320;28;20544;-77
2022/07/06 08:41:27;;;;;;;3.10;2.20;;;21.50;96.20;;;;;;5053460;28;20462;-77
2022/07/06 08:43:54;;;;;;;3.30;2.27;;;21.70;96.10;;;;;;5054044;28;20456;-78
2022/07/06 08:46:23;;;;;;;2.67;2.23;;;21.70;94.80;;;;;;5055367;28;20537;-77
2022/07/06 08:48:51;;;;;;;4.10;2.80;;;21.90;95.00;;;;;;5055300;28;20816;-76
2022/07/06 08:51:22;;;;;;;3.00;2.57;;;22.00;93.20;;;;;;5055338;28;20465;-77
2022/07/06 08:53:50;;;;;;;4.10;2.67;;;22.00;92.60;;;;;;5054078;28;20544;-77
2022/07/06 08:56:19;;;;;;;4.27;2.50;;;22.10;94.70;;;;;;5054699;28;20476;-77
2022/07/06 08:58:46;;;;;;;4.80;2.10;;;22.30;94.60;;;;;;5055004;28;20533;-77
2022/07/06 09:01:14;;;;;;;4.10;2.70;;;22.40;91.70;;;;;;5054409;28;20486;-76
2022/07/06 09:03:44;;;;;;;4.57;2.30;;;22.40;91.80;;;;;;5054691;28;20457;-77
2022/07/06 09:06:16;;;;;;;3.07;2.50;;;22.50;89.80;;;;;;5054506;28;20464;-78
2022/07/06 09:08:45;;;;;;;5.60;2.50;;;22.70;90.60;;;;;;5054646;28;20550;-77
2022/07/06 09:11:12;;;;;;;3.77;2.30;;;22.80;89.60;;;;;;5054437;28;20552;-76
2022/07/06 09:13:39;;;;;;;3.20;2.20;;;23.00;90.90;;;;;;5054421;28;20458;-70
2022/07/06 09:16:14;;;;;;;5.27;3.17;;;23.10;89.60;;;;;;5054298;28;20469;-72
2022/07/06 09:18:46;;;;;;;4.70;2.60;;;23.20;90.90;;;;;;5054416;28;20465;-71
2022/07/06 09:21:24;;;;;;;6.53;2.70;;;23.20;90.20;;;;;;5054090;28;20490;-73
2022/07/06 09:23:55;;;;;;;3.23;2.33;;;23.20;91.30;;;;;;5054328;28;20464;-74
2022/07/06 09:26:23;;;;;;;3.33;2.70;;;23.30;92.10;;;;;;5054556;28;20916;-73
2022/07/06 09:28:50;;;;;;;3.60;2.50;;;23.20;90.00;;;;;;5052918;28;20461;-71
2022/07/06 09:31:25;;;;;;;2.97;2.50;;;23.00;91.00;;;;;;5053941;28;20458;-75
2022/07/06 09:33:59;;;;;;;6.30;3.33;;;23.10;90.80;;;;;;5054345;28;20959;-69
2022/07/06 09:36:41;;;;;;;6.37;3.27;;;23.20;92.30;;;;;;5053994;28;20457;-64
2022/07/06 09:39:27;;;;;;;6.13;3.00;;;23.40;91.40;;;;;;5052802;28;20461;-67
2022/07/06 09:41:57;;;;;;;3.97;3.00;;;23.90;93.30;;;;;;5054049;28;20457;-71
2022/07/06 09:44:26;;;;;;;3.90;2.80;;;24.20;92.30;;;;;;5054107;28;20454;-73
2022/07/06 09:46:56;;;;;;;4.23;2.83;;;24.20;88.40;;;;;;5054101;28;20924;-66
2022/07/06 09:49:25;;;;;;;2.63;2.50;;;24.20;91.50;;;;;;5054075;28;20979;-66
2022/07/06 09:51:54;;;;;;;5.90;2.87;;;24.30;89.60;;;;;;5052650;28;20446;-67
2022/07/06 09:54:22;;;;;;;4.33;3.00;;;24.20;90.50;;;;;;5053765;28;20468;-67
2022/07/06 09:56:51;;;;;;;3.87;2.37;;;23.80;88.80;;;;;;5053506;28;20573;-70
2022/07/06 09:59:22;;;;;;;3.30;2.60;;;23.70;91.80;;;;;;5053739;28;20893;-66
2022/07/06 10:01:54;;;;;;;4.50;2.77;;;23.90;90.80;;;;;;5053523;28;20461;-64
2022/07/06 10:04:21;;;;;;;3.90;2.50;;;24.10;90.70;;;;;;5053325;28;20480;-64
2022/07/06 10:06:50;;;;;;;4.07;2.80;;;24.40;91.00;;;;;;5053318;28;20454;-63
2022/07/06 10:09:20;;;;;;;3.93;2.70;;;24.70;90.50;;;;;;5053162;28;20466;-66
2022/07/06 10:11:50;;;;;;;3.33;2.50;;;24.80;87.90;;;;;;5053059;28;20457;-65
2022/07/06 10:14:21;;;;;;;4.37;2.67;;;24.60;85.80;;;;;;5053044;28;20465;-66
2022/07/06 10:16:49;;;;;;;4.90;2.60;;;24.50;86.90;;;;;;5053070;28;20825;-66
2022/07/06 10:19:18;;;;;;;3.83;2.50;;;24.60;87.50;;;;;;5052447;28;20944;-65
2022/07/06 10:21:46;;;;;;;3.57;2.40;;;24.60;90.30;;;;;;5052675;28;20486;-69
2022/07/06 10:24:15;;;;;;;3.53;2.60;;;24.90;88.10;;;;;;5052601;28;20453;-70
2022/07/06 10:26:43;;;;;;;4.10;2.33;;;25.00;86.00;;;;;;5052992;28;20456;-70
2022/07/06 10:29:10;;;;;;;4.30;2.40;;;25.20;86.20;;;;;;5057281;28;20456;-71
2022/07/06 10:31:41;;;;;;;4.90;2.90;;;25.40;86.80;;;;;;5067453;28;20548;-69
2022/07/06 10:34:14;;;;;;;6.83;2.90;;;25.40;85.70;;;;;;5063177;28;20469;-71
2022/07/06 10:36:42;;;;;;;3.13;2.40;;;25.20;85.90;;;;;;5438351;22;20584;-70
2022/07/06 10:41:57;;;;;;;4.40;2.80;;;25.20;86.40;;;;;;5060386;28;20562;-71
2022/07/06 10:44:27;;;;;;;4.07;2.93;;;25.20;85.80;;;;;;5052651;28;20457;-72
2022/07/06 10:46:55;;;;;;;5.30;2.70;;;25.40;86.40;;;;;;5052913;28;20461;-72
2022/07/06 10:49:24;;;;;;;3.13;2.60;;;25.50;85.80;;;;;;5053009;28;20470;-71
2022/07/06 10:51:53;;;;;;;3.57;2.57;;;25.60;86.50;;;;;;5052490;28;20458;-64
2022/07/06 10:54:21;;;;;;;3.10;2.40;;;25.70;85.90;;;;;;5052754;28;20932;-66
2022/07/06 10:56:50;;;;;;;4.07;2.60;;;25.90;85.20;;;;;;5051724;28;20457;-68
2022/07/06 10:59:21;;;;;;;4.73;2.50;;;26.10;85.40;;;;;;5052477;28;20465;-68
2022/07/06 11:02:12;;;;;;;3.87;2.60;;;26.20;84.40;;;;;;5051998;28;20576;-66
2022/07/06 11:04:39;;;;;;;4.07;2.53;;;26.20;85.30;;;;;;5048907;28;20454;-67
2022/07/06 11:07:18;;;;;;;3.93;2.80;;;26.30;79.90;;;;;;5052107;28;20458;-69
2022/07/06 11:09:55;;;;;;;3.57;2.80;;;26.10;83.20;;;;;;5050850;28;20462;-68
2022/07/06 11:12:23;;;;;;;4.00;2.83;;;26.20;82.80;;;;;;5050688;28;21110;-68
2022/07/06 11:14:54;;;;;;;3.57;2.60;;;25.90;84.30;;;;;;5052152;28;20818;-68
2022/07/06 11:17:22;;;;;;;3.87;2.90;;;25.80;83.60;;;;;;5051682;28;21030;-67
2022/07/06 11:19:51;;;;;;;3.43;2.40;;;25.80;83.40;;;;;;5052339;28;20458;-67
2022/07/06 11:22:19;;;;;;;4.03;2.47;;;25.80;84.10;;;;;;5051670;28;20457;-67
2022/07/06 11:24:48;;;;;;;4.90;2.97;;;26.20;84.80;;;;;;5052447;28;20864;-67
2022/07/06 11:27:16;;;;;;;3.40;2.50;;;26.50;83.00;;;;;;5051627;28;21058;-69
2022/07/06 11:29:44;;;;;;;6.43;3.10;;;26.70;83.30;;;;;;5051796;28;20449;-69
2022/07/06 11:32:14;;;;;;;3.17;2.10;;;26.60;82.50;;;;;;5051877;28;20481;-71
2022/07/06 11:34:43;;;;;;;2.70;2.40;;;26.60;82.90;;;;;;5050996;28;20454;-72
2022/07/06 11:37:12;;;;;;;4.10;2.60;;;26.80;83.40;;;;;;5051741;28;20474;-70
2022/07/06 11:39:41;;;;;;;3.00;2.20;;;27.10;82.80;;;;;;5050987;28;20465;-71
2022/07/06 11:42:09;;;;;;;2.70;2.57;;;27.40;81.10;;;;;;5051818;28;21132;-68
2022/07/06 11:44:37;;;;;;;3.10;2.33;;;27.30;81.90;;;;;;5051952;28;20983;-72
2022/07/06 11:47:06;;;;;;;3.30;2.33;;;27.10;81.90;;;;;;5051996;28;20458;-69
2022/07/06 11:49:35;;;;;;;4.00;2.73;;;26.90;80.90;;;;;;5051780;28;20462;-73
2022/07/06 11:52:07;;;;;;;4.13;2.30;;;27.00;81.80;;;;;;5051873;28;20982;-70
2022/07/06 11:54:35;;;;;;;3.70;2.70;;;27.30;80.90;;;;;;5051528;28;20454;-72
2022/07/06 11:57:03;;;;;;;2.97;2.00;;;27.60;82.50;;;;;;5051946;28;20461;-72
2022/07/06 11:59:33;;;;;;;4.10;2.47;;;27.70;78.40;;;;;;5051488;28;20486;-73
2022/07/06 12:02:01;;;;;;;4.77;2.50;;;27.80;80.10;;;;;;5051331;28;20482;-69
2022/07/06 12:04:30;;;;;;;3.50;2.40;;;27.80;78.00;;;;;;5051409;28;20461;-72
2022/07/06 12:07:01;;;;;;;3.20;2.57;;;27.70;77.10;;;;;;5051024;28;20956;-72
2022/07/06 12:09:37;;;;;;;5.00;2.80;;;28.10;79.70;;;;;;5051253;28;21137;-72
2022/07/06 12:12:05;;;;;;;4.37;2.70;;;28.40;79.30;;;;;;5051089;28;20461;-68
2022/07/06 12:14:34;;;;;;;4.23;2.70;;;28.50;78.00;;;;;;5051369;28;20476;-69
2022/07/06 12:17:04;;;;;;;3.13;2.17;;;28.60;78.70;;;;;;5054554;28;20465;-72
2022/07/06 12:19:32;;;;;;;3.07;2.43;;;28.60;76.30;;;;;;5055308;28;20968;-73
2022/07/06 12:22:02;;;;;;;4.03;2.70;;;28.10;75.30;;;;;;5055397;28;20492;-73
2022/07/06 12:24:32;;;;;;;4.40;2.40;;;28.20;78.10;;;;;;5055300;28;20944;-72
2022/07/06 12:27:10;;;;;;;3.20;2.50;;;28.10;76.60;;;;;;5055699;28;20457;-73
2022/07/06 12:29:37;;;;;;;3.87;2.80;;;28.20;77.80;;;;;;5055511;28;21129;-73
2022/07/06 12:32:06;;;;;;;3.73;2.57;;;28.10;77.20;;;;;;5055104;28;20467;-73
2022/07/06 12:34:35;;;;;;;2.97;2.20;;;28.10;79.80;;;;;;5053693;28;20499;-74
2022/07/06 12:37:09;;;;;;;3.33;2.47;;;28.20;78.40;;;;;;5054533;28;20552;-73
2022/07/06 12:39:43;;;;;;;3.43;2.37;;;28.30;78.50;;;;;;5054746;28;20454;-73
2022/07/06 12:42:10;;;;;;;4.00;2.80;;;27.90;76.40;;;;;;5054472;28;20519;-75
2022/07/06 12:44:44;;;;;;;4.63;2.70;;;27.70;77.50;;;;;;5054870;28;20457;-72
2022/07/06 12:47:12;;;;;;;3.20;2.60;;;27.50;80.00;;;;;;5054634;28;20473;-73
2022/07/06 12:49:41;;;;;;;4.30;2.30;;;27.30;78.60;;;;;;5054665;28;20543;-73
2022/07/06 12:52:14;;;;;;;3.30;2.23;;;27.30;80.70;;;;;;5054875;28;20453;-73
2022/07/06 12:54:46;;;;;;;3.67;2.40;;;27.30;80.60;;;;;;5055090;28;20459;-73
2022/07/06 12:57:15;;;;;;;3.83;2.53;;;26.90;79.90;;;;;;5054772;28;20548;-73
2022/07/06 12:59:45;;;;;;;3.20;2.50;;;26.60;80.50;;;;;;5055041;28;20966;-72
2022/07/06 13:02:20;;;;;;;3.30;2.63;;;26.40;81.60;;;;;;5054747;28;20859;-72